createdAt,value
2018-06-03T00:01:07.920Z,7.93
2018-06-03T00:03:48.912Z,8.00
2018-06-03T00:06:29.949Z,9.70
2018-06-03T00:09:10.961Z,9.57
2018-06-03T00:11:52.556Z,7.93
2018-06-03T00:14:33.688Z,7.97
2018-06-03T00:17:14.836Z,8.00
2018-06-03T00:19:56.783Z,7.90
2018-06-03T00:22:37.796Z,9.23
2018-06-03T00:25:19.368Z,8.93
2018-06-03T00:28:00.755Z,7.30
2018-06-03T00:30:42.097Z,8.13
2018-06-03T00:33:23.845Z,13.30
2018-06-03T00:36:22.072Z,7.87
2018-06-03T00:39:03.780Z,6.30
2018-06-03T00:41:45.083Z,8.67
2018-06-03T00:44:27.035Z,8.60
2018-06-03T00:47:08.409Z,6.87
2018-06-03T00:49:49.784Z,6.60
2018-06-03T00:52:31.218Z,7.30
2018-06-03T00:55:12.566Z,7.50
2018-06-03T00:57:54.741Z,6.37
2018-06-03T01:00:36.656Z,8.13
2018-06-03T01:03:18.044Z,7.67
2018-06-03T01:05:59.595Z,6.03
2018-06-03T01:08:40.952Z,6.83
2018-06-03T01:11:22.309Z,7.00
2018-06-03T01:14:03.524Z,7.83
2018-06-03T01:16:44.908Z,8.87
2018-06-03T01:19:26.862Z,7.70
2018-06-03T01:22:08.247Z,9.13
2018-06-03T01:24:49.773Z,10.07
2018-06-03T01:27:31.841Z,9.27
2018-06-03T01:30:13.442Z,7.93
2018-06-03T01:32:55.364Z,15.47
2018-06-03T01:35:36.886Z,8.30
2018-06-03T01:38:18.228Z,10.30
2018-06-03T01:40:59.516Z,8.17
2018-06-03T01:43:40.882Z,7.73
2018-06-03T01:46:22.276Z,10.07
2018-06-03T01:49:03.675Z,10.77
2018-06-03T01:51:45.067Z,10.90
2018-06-03T01:54:26.712Z,9.37
2018-06-03T01:57:08.200Z,8.93
2018-06-03T02:03:11.367Z,8.60
2018-06-03T02:05:53.552Z,7.93
2018-06-03T02:08:34.878Z,7.57
2018-06-03T02:11:16.187Z,8.27
2018-06-03T02:13:57.513Z,7.63
2018-06-03T02:16:38.856Z,6.50
2018-06-03T02:19:20.673Z,8.20
2018-06-03T02:22:02.723Z,7.40
2018-06-03T02:24:44.478Z,8.13
2018-06-03T02:27:25.831Z,7.73
2018-06-03T02:30:07.175Z,9.13
2018-06-03T02:32:48.567Z,8.40
2018-06-03T02:35:30.460Z,9.63
2018-06-03T02:38:11.910Z,9.77
2018-06-03T02:40:54.249Z,9.30
2018-06-03T02:43:35.557Z,9.97
2018-06-03T02:46:17.070Z,10.17
2018-06-03T02:48:58.467Z,13.10
2018-06-03T02:51:39.916Z,11.40
2018-06-03T02:54:23.493Z,10.43
2018-06-03T02:57:04.894Z,11.10
2018-06-03T02:59:46.253Z,12.57
2018-06-03T03:02:27.626Z,14.10
2018-06-03T03:05:08.914Z,12.87
2018-06-03T03:07:50.606Z,16.93
2018-06-03T03:10:32.548Z,15.83
2018-06-03T03:13:13.953Z,20.30
2018-06-03T03:15:55.440Z,16.60
2018-06-03T03:18:36.883Z,18.23
2018-06-03T03:21:18.183Z,14.53
2018-06-03T03:23:59.639Z,15.43
2018-06-03T03:26:41.012Z,14.27
2018-06-03T03:29:22.502Z,16.80
2018-06-03T03:32:03.801Z,14.13
2018-06-03T03:34:45.141Z,14.00
2018-06-03T03:37:26.320Z,16.87
2018-06-03T03:40:07.484Z,13.80
2018-06-03T03:42:49.575Z,19.67
2018-06-03T03:45:30.883Z,16.27
2018-06-03T03:48:12.358Z,15.87
2018-06-03T03:50:54.374Z,18.90
2018-06-03T03:53:35.875Z,17.63
2018-06-03T03:56:17.915Z,16.03
2018-06-03T03:58:59.304Z,15.20
2018-06-03T04:01:40.648Z,18.87
2018-06-03T04:04:22.481Z,19.87
2018-06-03T04:07:03.854Z,17.87
2018-06-03T04:09:45.244Z,16.83
2018-06-03T04:12:26.541Z,17.10
2018-06-03T04:15:07.993Z,14.90
2018-06-03T04:17:49.616Z,17.63
2018-06-03T04:20:30.922Z,16.87
2018-06-03T04:23:12.196Z,14.50
2018-06-03T04:25:54.420Z,13.20
2018-06-03T04:28:35.712Z,15.30
2018-06-03T04:31:17.560Z,18.97
2018-06-03T04:33:59.673Z,16.20
2018-06-03T04:36:41.177Z,15.60
2018-06-03T04:39:23.617Z,14.73
2018-06-03T04:42:06.025Z,15.53
2018-06-03T04:44:48.228Z,12.60
2018-06-03T04:47:30.637Z,14.00
2018-06-03T04:50:12.349Z,13.20
2018-06-03T04:52:55.657Z,14.67
2018-06-03T04:55:37.370Z,10.33
2018-06-03T04:58:19.632Z,7.60
2018-06-03T05:01:01.112Z,9.17
2018-06-03T05:03:42.432Z,9.83
2018-06-03T05:06:24.865Z,10.23
2018-06-03T05:09:07.825Z,10.47
2018-06-03T05:11:49.557Z,11.07
2018-06-03T05:14:30.888Z,9.30
2018-06-03T05:17:12.237Z,9.73
2018-06-03T05:19:53.923Z,9.33
2018-06-03T05:22:35.376Z,8.67
2018-06-03T05:25:17.754Z,8.47
2018-06-03T05:27:59.581Z,6.90
2018-06-03T05:30:41.020Z,6.70
2018-06-03T05:33:22.448Z,6.17
2018-06-03T05:36:03.907Z,5.30
2018-06-03T05:38:45.186Z,5.73
2018-06-03T05:41:26.532Z,6.60
2018-06-03T05:44:07.969Z,5.90
2018-06-03T05:46:49.528Z,5.53
2018-06-03T05:49:30.988Z,6.53
2018-06-03T05:52:12.337Z,7.23
2018-06-03T05:54:54.256Z,7.60
2018-06-03T05:57:35.586Z,5.20
2018-06-03T06:00:17.564Z,5.70
2018-06-03T06:02:59.706Z,4.73
2018-06-03T06:05:41.060Z,4.63
2018-06-03T06:08:23.547Z,4.40
2018-06-03T06:11:05.401Z,5.73
2018-06-03T06:13:46.580Z,5.77
2018-06-03T06:16:27.949Z,4.93
2018-06-03T06:19:09.225Z,4.60
2018-06-03T06:21:50.807Z,5.30
2018-06-03T06:24:32.085Z,5.13
2018-06-03T06:27:14.232Z,5.53
2018-06-03T06:29:56.493Z,5.87
2018-06-03T06:32:37.827Z,7.10
2018-06-03T06:35:20.449Z,6.73
2018-06-03T06:38:02.371Z,8.63
2018-06-03T06:40:43.733Z,6.60
2018-06-03T06:43:25.221Z,6.97
2018-06-03T06:46:09.029Z,4.70
2018-06-03T06:48:51.100Z,5.57
2018-06-03T06:51:32.567Z,6.47
2018-06-03T06:54:14.148Z,4.70
2018-06-03T06:56:55.471Z,5.30
2018-06-03T06:59:36.803Z,8.07
2018-06-03T07:02:18.085Z,4.80
2018-06-03T07:04:59.390Z,5.80
2018-06-03T07:07:40.738Z,6.60
2018-06-03T07:10:22.440Z,6.20
2018-06-03T07:13:03.636Z,6.73
2018-06-03T07:15:44.970Z,6.10
2018-06-03T07:18:26.315Z,5.50
2018-06-03T07:21:07.702Z,6.20
2018-06-03T07:23:49.788Z,6.80
2018-06-03T07:26:31.484Z,6.83
2018-06-03T07:29:12.813Z,6.83
2018-06-03T07:31:54.762Z,6.53
2018-06-03T07:34:36.211Z,5.90
2018-06-03T07:37:17.575Z,6.70
2018-06-03T07:39:59.398Z,7.90
2018-06-03T07:42:40.808Z,7.83
2018-06-03T07:45:22.641Z,6.30
2018-06-03T07:48:05.227Z,7.77
2018-06-03T07:50:46.688Z,7.73
2018-06-03T07:53:28.221Z,7.47
2018-06-03T07:56:09.541Z,8.53
2018-06-03T07:58:52.952Z,8.30
2018-06-03T08:01:34.516Z,6.67
2018-06-03T08:04:15.905Z,8.07
2018-06-03T08:06:57.529Z,5.80
2018-06-03T08:09:39.741Z,7.17
2018-06-03T08:12:21.737Z,6.70
2018-06-03T08:15:04.086Z,5.53
2018-06-03T08:17:45.527Z,6.53
2018-06-03T08:20:26.925Z,6.17
2018-06-03T08:23:08.371Z,6.60
2018-06-03T08:25:50.363Z,7.10
2018-06-03T08:28:32.181Z,7.77
2018-06-03T08:31:14.764Z,7.73
2018-06-03T08:33:58.006Z,8.13
2018-06-03T08:36:39.677Z,7.40
2018-06-03T08:39:21.630Z,6.63
2018-06-03T08:42:03.157Z,10.27
2018-06-03T08:44:47.831Z,7.10
2018-06-03T08:47:29.420Z,7.30
2018-06-03T08:50:10.968Z,7.63
2018-06-03T08:52:56.813Z,7.50
2018-06-03T08:55:38.780Z,7.70
2018-06-03T08:58:21.718Z,8.77
2018-06-03T09:01:04.401Z,12.73
2018-06-03T09:03:45.890Z,7.90
2018-06-03T09:06:27.691Z,7.43
2018-06-03T09:09:09.689Z,6.93
2018-06-03T09:11:51.031Z,6.23
2018-06-03T09:14:32.303Z,7.87
2018-06-03T09:17:13.686Z,8.40
2018-06-03T09:19:56.020Z,8.93
2018-06-03T09:22:37.357Z,8.83
2018-06-03T09:25:18.856Z,8.37
2018-06-03T09:28:00.240Z,8.43
2018-06-03T09:30:41.601Z,9.33
2018-06-03T09:33:23.655Z,8.33
2018-06-03T09:36:04.931Z,7.60
2018-06-03T09:38:46.381Z,9.37
2018-06-03T09:41:27.694Z,12.83
2018-06-03T09:44:08.991Z,8.73
2018-06-03T09:46:50.375Z,8.23
2018-06-03T09:49:32.080Z,8.80
2018-06-03T09:52:13.494Z,9.77
2018-06-03T09:54:56.038Z,8.00
2018-06-03T09:57:37.584Z,9.60
2018-06-03T10:00:23.099Z,9.73
2018-06-03T10:03:04.544Z,7.73
2018-06-03T10:05:46.399Z,7.03
2018-06-03T10:08:27.760Z,8.83
2018-06-03T10:11:09.072Z,7.87
2018-06-03T10:13:50.448Z,10.37
2018-06-03T10:16:31.894Z,8.47
2018-06-03T10:19:13.289Z,9.40
2018-06-03T10:21:55.005Z,8.20
2018-06-03T10:24:36.320Z,9.10
2018-06-03T10:27:18.146Z,54.67
2018-06-03T10:29:59.509Z,13.10
2018-06-03T10:32:40.799Z,18.33
2018-06-03T10:35:23.858Z,10.57
2018-06-03T10:38:05.466Z,13.97
2018-06-03T10:40:46.957Z,10.40
2018-06-03T10:43:28.115Z,10.10
2018-06-03T10:46:09.516Z,9.00
2018-06-03T10:48:50.811Z,10.23
2018-06-03T10:51:35.813Z,8.70
2018-06-03T10:54:17.191Z,7.63
2018-06-03T10:56:58.645Z,7.90
2018-06-03T10:59:40.776Z,8.53
2018-06-03T11:02:22.865Z,9.07
2018-06-03T11:05:04.053Z,8.47
2018-06-03T11:07:45.672Z,8.63
2018-06-03T11:10:27.984Z,12.20
2018-06-03T11:13:09.307Z,8.77
2018-06-03T11:15:50.789Z,8.13
2018-06-03T11:18:33.350Z,7.60
2018-06-03T11:21:14.851Z,8.23
2018-06-03T11:23:56.847Z,8.23
2018-06-03T11:26:38.204Z,7.90
2018-06-03T11:29:19.432Z,8.43
2018-06-03T11:32:01.497Z,8.97
2018-06-03T11:34:42.997Z,9.10
2018-06-03T11:37:25.964Z,9.07
2018-06-03T11:40:07.288Z,9.30
2018-06-03T11:42:48.569Z,8.03
2018-06-03T11:45:30.033Z,7.40
2018-06-03T11:48:11.357Z,7.23
2018-06-03T11:50:53.001Z,7.70
2018-06-03T11:53:34.252Z,7.53
2018-06-03T11:56:15.562Z,12.03
2018-06-03T11:59:11.640Z,10.40
2018-06-03T12:01:53.926Z,8.30
2018-06-03T12:04:35.420Z,7.50
2018-06-03T12:07:17.179Z,6.00
2018-06-03T12:09:58.557Z,6.83
2018-06-03T12:12:39.962Z,7.30
2018-06-03T12:15:21.732Z,6.33
2018-06-03T12:18:03.246Z,6.57
2018-06-03T12:20:44.719Z,6.50
2018-06-03T12:23:26.762Z,9.37
2018-06-03T12:26:08.687Z,6.90
2018-06-03T12:28:50.017Z,6.20
2018-06-03T12:31:31.500Z,5.80
2018-06-03T12:34:12.967Z,5.47
2018-06-03T12:36:56.105Z,6.00
2018-06-03T12:39:38.341Z,5.07
2018-06-03T12:42:19.783Z,7.13
2018-06-03T12:45:01.128Z,5.97
2018-06-03T12:47:42.432Z,6.70
2018-06-03T12:50:26.093Z,5.30
2018-06-03T12:53:07.575Z,5.43
2018-06-03T12:55:49.268Z,6.77
2018-06-03T12:58:30.660Z,5.87
2018-06-03T13:01:13.466Z,6.60
2018-06-03T13:03:55.803Z,8.00
2018-06-03T13:06:37.071Z,5.83
2018-06-03T13:09:18.369Z,5.10
2018-06-03T13:11:59.786Z,6.57
2018-06-03T13:14:41.271Z,5.77
2018-06-03T13:17:24.106Z,7.87
2018-06-03T13:20:06.105Z,6.00
2018-06-03T13:22:47.513Z,5.27
2018-06-03T13:25:28.832Z,5.60
2018-06-03T13:28:10.601Z,6.73
2018-06-03T13:30:52.853Z,6.03
2018-06-03T13:33:34.189Z,6.27
2018-06-03T13:36:15.461Z,5.33
2018-06-03T13:38:57.296Z,6.33
2018-06-03T13:41:38.621Z,5.47
2018-06-03T13:44:20.341Z,6.80
2018-06-03T13:47:02.577Z,6.67
2018-06-03T13:49:46.734Z,9.87
2018-06-03T13:52:28.853Z,9.00
2018-06-03T13:55:10.218Z,9.47
2018-06-03T13:57:51.649Z,9.43
2018-06-03T14:01:03.791Z,9.13
2018-06-03T14:03:45.684Z,9.97
2018-06-03T14:06:27.952Z,11.00
2018-06-03T14:09:10.993Z,10.60
2018-06-03T14:11:52.833Z,11.43
2018-06-03T14:14:34.305Z,9.80
2018-06-03T14:17:15.660Z,13.03
2018-06-03T14:19:57.871Z,12.47
2018-06-03T14:22:39.219Z,8.53
2018-06-03T14:25:20.677Z,10.33
2018-06-03T14:28:03.553Z,8.27
2018-06-03T14:30:48.008Z,9.47
2018-06-03T14:33:29.535Z,12.33
2018-06-03T14:36:11.009Z,8.13
2018-06-03T14:38:53.421Z,7.57
2018-06-03T14:41:35.453Z,8.10
2018-06-03T14:44:17.044Z,7.20
2018-06-03T14:46:58.409Z,7.40
2018-06-03T14:49:39.776Z,7.13
2018-06-03T14:52:21.081Z,8.40
2018-06-03T14:55:02.941Z,8.27
2018-06-03T14:57:44.245Z,8.60
2018-06-03T15:00:25.552Z,8.70
2018-06-03T15:03:06.945Z,8.30
2018-06-03T15:05:48.364Z,8.13
2018-06-03T15:08:29.731Z,9.00
2018-06-03T15:11:11.098Z,12.00
2018-06-03T15:13:52.731Z,9.23
2018-06-03T15:16:39.167Z,9.33
2018-06-03T15:19:20.578Z,9.43
2018-06-03T15:22:02.621Z,9.73
2018-06-03T15:24:44.001Z,9.53
2018-06-03T15:27:25.652Z,9.30
2018-06-03T15:30:06.955Z,8.60
2018-06-03T15:32:48.330Z,9.03
2018-06-03T15:35:29.669Z,8.77
2018-06-03T15:38:11.055Z,8.77
2018-06-03T15:40:52.961Z,8.17
2018-06-03T15:43:34.344Z,9.23
2018-06-03T15:46:15.675Z,8.13
2018-06-03T15:48:58.157Z,8.97
2018-06-03T15:51:39.701Z,9.93
2018-06-03T15:54:21.604Z,9.57
2018-06-03T15:57:02.943Z,9.90
2018-06-03T15:59:44.494Z,9.37
2018-06-03T16:02:26.949Z,9.70
2018-06-03T16:05:08.452Z,14.57
2018-06-03T16:07:49.889Z,12.60
2018-06-03T16:10:31.517Z,10.20
2018-06-03T16:13:12.967Z,10.03
2018-06-03T16:15:55.817Z,11.67
2018-06-03T16:18:37.266Z,11.37
2018-06-03T16:21:18.567Z,10.90
2018-06-03T16:23:59.940Z,10.00
2018-06-03T16:26:41.267Z,9.47
2018-06-03T16:29:23.586Z,12.07
2018-06-03T16:32:05.762Z,18.60
2018-06-03T16:34:46.933Z,12.10
2018-06-03T16:37:28.336Z,11.10
2018-06-03T16:40:09.697Z,14.23
2018-06-03T16:42:51.245Z,13.30
2018-06-03T16:45:32.770Z,12.97
2018-06-03T16:48:14.381Z,11.80
2018-06-03T16:50:56.823Z,12.20
2018-06-03T16:53:38.450Z,12.93
2018-06-03T16:56:19.913Z,11.00
2018-06-03T16:59:01.322Z,11.40
2018-06-03T17:01:42.726Z,13.27
2018-06-03T17:04:25.841Z,11.37
2018-06-03T17:07:07.409Z,11.47
2018-06-03T17:09:49.067Z,11.80
2018-06-03T17:12:30.372Z,12.43
2018-06-03T17:15:11.774Z,15.87
2018-06-03T17:17:53.736Z,11.67
2018-06-03T17:20:36.072Z,12.40
2018-06-03T17:23:17.500Z,16.10
2018-06-03T17:25:59.012Z,15.20
2018-06-03T17:28:41.479Z,13.93
2018-06-03T17:31:23.935Z,14.73
2018-06-03T17:34:05.473Z,12.13
2018-06-03T17:36:46.904Z,13.50
2018-06-03T17:39:28.564Z,12.77
2018-06-03T17:42:10.039Z,12.87
2018-06-03T17:44:51.435Z,11.50
2018-06-03T17:47:33.664Z,11.57
2018-06-03T17:50:15.298Z,11.70
2018-06-03T17:52:57.506Z,11.43
2018-06-03T17:55:39.026Z,11.37
2018-06-03T17:58:20.465Z,11.50
2018-06-03T18:01:02.624Z,11.93
2018-06-03T18:03:43.973Z,11.93
2018-06-03T18:06:26.799Z,12.63
2018-06-03T18:09:09.449Z,11.07
2018-06-03T18:11:50.925Z,12.30
2018-06-03T18:14:32.649Z,11.23
2018-06-03T18:17:14.974Z,12.43
2018-06-03T18:19:57.116Z,11.30
2018-06-03T18:22:38.569Z,12.80
2018-06-03T18:25:19.937Z,13.53
2018-06-03T18:28:01.405Z,15.17
2018-06-03T18:30:42.749Z,15.67
2018-06-03T18:33:25.569Z,15.60
2018-06-03T18:36:07.093Z,14.97
2018-06-03T18:38:48.692Z,14.20
2018-06-03T18:41:30.222Z,13.50
2018-06-03T18:44:11.782Z,13.77
2018-06-03T18:46:53.889Z,12.57
2018-06-03T18:49:36.365Z,14.63
2018-06-03T18:52:17.782Z,15.93
2018-06-03T18:54:59.246Z,15.77
2018-06-03T18:57:40.685Z,14.03
2018-06-03T19:00:22.728Z,14.90
2018-06-03T19:03:04.208Z,11.50
2018-06-03T19:05:45.660Z,13.23
2018-06-03T19:08:27.729Z,13.23
2018-06-03T19:11:09.084Z,10.57
2018-06-03T19:13:50.608Z,9.77
2018-06-03T19:16:33.433Z,10.43
2018-06-03T19:19:14.799Z,10.87
2018-06-03T19:21:56.723Z,11.63
2018-06-03T19:24:38.376Z,19.73
2018-06-03T19:27:21.738Z,14.27
2018-06-03T19:30:04.502Z,12.37
2018-06-03T19:32:45.859Z,11.53
2018-06-03T19:35:29.279Z,13.70
2018-06-03T19:38:11.391Z,13.77
2018-06-03T19:40:54.157Z,14.23
2018-06-03T19:43:35.576Z,14.80
2018-06-03T19:46:17.276Z,14.17
2018-06-03T19:48:58.969Z,14.57
2018-06-03T19:51:42.405Z,14.20
2018-06-03T19:54:24.503Z,14.97
2018-06-03T19:57:06.161Z,14.53
2018-06-03T19:59:47.754Z,15.13
2018-06-03T20:02:31.630Z,15.37
2018-06-03T20:05:13.099Z,15.43
2018-06-03T20:07:57.526Z,18.03
2018-06-03T20:10:38.883Z,16.60
2018-06-03T20:13:20.628Z,21.13
2018-06-03T20:16:03.688Z,17.70
2018-06-03T20:18:45.211Z,19.20
2018-06-03T20:21:27.347Z,16.97
2018-06-03T20:24:08.836Z,17.37
2018-06-03T20:26:51.354Z,17.27
2018-06-03T20:29:34.023Z,18.37
2018-06-03T20:32:15.822Z,15.13
2018-06-03T20:34:58.113Z,18.77
2018-06-03T20:37:39.596Z,18.60
2018-06-03T20:40:20.962Z,15.30
2018-06-03T20:43:02.840Z,19.60
2018-06-03T20:45:44.169Z,15.50
2018-06-03T20:48:25.787Z,15.40
2018-06-03T20:51:07.044Z,17.57
2018-06-03T20:53:48.608Z,16.93
2018-06-03T20:56:30.880Z,16.47
2018-06-03T20:59:12.452Z,18.77
2018-06-03T21:01:54.660Z,16.13
2018-06-03T21:04:36.120Z,15.70
2018-06-03T21:07:17.509Z,16.57
2018-06-03T21:09:59.298Z,17.13
2018-06-03T21:12:40.836Z,19.30
2018-06-03T21:15:23.167Z,16.00
2018-06-03T21:18:04.869Z,21.80
2018-06-03T21:20:46.273Z,18.97
2018-06-03T21:23:28.640Z,17.87
2018-06-03T21:26:10.244Z,20.17
2018-06-03T21:28:53.032Z,17.87
2018-06-03T21:31:34.737Z,20.17
2018-06-03T21:34:16.245Z,16.80
2018-06-03T21:36:57.964Z,17.87
2018-06-03T21:39:39.597Z,17.27
2018-06-03T21:42:25.966Z,20.30
2018-06-03T21:45:07.412Z,19.33
2018-06-03T21:47:49.850Z,17.00
2018-06-03T21:50:31.387Z,17.80
2018-06-03T21:53:13.718Z,19.00
2018-06-03T21:55:55.802Z,17.73
2018-06-03T21:58:37.115Z,24.23
2018-06-03T22:01:18.454Z,19.73
2018-06-03T22:03:59.841Z,18.83
2018-06-03T22:06:41.449Z,19.13
2018-06-03T22:09:23.089Z,16.83
2018-06-03T22:12:04.464Z,18.67
2018-06-03T22:14:45.815Z,16.77
2018-06-03T22:17:27.581Z,20.13
2018-06-03T22:20:08.915Z,19.07
2018-06-03T22:22:50.355Z,19.13
2018-06-03T22:25:31.881Z,19.20
2018-06-03T22:28:13.737Z,18.53
2018-06-03T22:30:56.763Z,16.50
2018-06-03T22:33:38.121Z,22.23
2018-06-03T22:36:19.419Z,18.77
2018-06-03T22:39:00.772Z,17.47
2018-06-03T22:41:42.251Z,17.83
2018-06-03T22:44:24.654Z,18.67
2018-06-03T22:47:06.132Z,18.10
2018-06-03T22:49:47.634Z,20.87
2018-06-03T22:52:28.909Z,18.03
2018-06-03T22:55:10.252Z,18.57
2018-06-03T22:57:53.692Z,17.87
2018-06-03T23:00:35.703Z,17.33
2018-06-03T23:03:17.261Z,17.67
2018-06-03T23:05:58.753Z,18.87
2018-06-03T23:08:40.070Z,18.40
2018-06-03T23:11:21.416Z,17.90
2018-06-03T23:14:02.869Z,21.43
2018-06-03T23:16:44.302Z,18.57
2018-06-03T23:19:25.779Z,16.47
2018-06-03T23:22:07.094Z,17.73
2018-06-03T23:24:48.203Z,18.23
2018-06-03T23:27:29.809Z,22.47
2018-06-03T23:30:11.136Z,19.20
2018-06-03T23:32:52.988Z,20.23
2018-06-03T23:35:34.318Z,19.27
2018-06-03T23:38:15.690Z,21.70
2018-06-03T23:40:57.482Z,20.77
2018-06-03T23:43:38.977Z,23.00
2018-06-03T23:46:20.376Z,19.07
2018-06-03T23:49:01.730Z,22.03
2018-06-03T23:51:43.179Z,20.80
2018-06-03T23:54:25.755Z,20.73
2018-06-03T23:57:07.091Z,23.07
2018-06-03T23:59:48.977Z,23.60
